sensor_id;sensor_type;location;lat;lon;timestamp;pressure;altitude;pressure_sealevel;temperature;humidity
24390;BME280;12510;56.468;-3.004;2022-09-09T00:04:34;99815.19;;;20.74;100.00
24390;BME280;12510;56.468;-3.004;2022-09-09T00:09:47;99804.78;;;20.85;100.00
24390;BME280;12510;56.468;-3.004;2022-09-09T00:15:07;99813.69;;;20.79;100.00
24390;BME280;12510;56.468;-3.004;2022-09-09T00:18:10;99822.09;;;20.82;100.00
24390;BME280;12510;56.468;-3.004;2022-09-09T00:20:48;99812.16;;;20.64;100.00
24390;BME280;12510;56.468;-3.004;2022-09-09T00:28:26;99817.25;;;20.91;100.00
24390;BME280;12510;56.468;-3.004;2022-09-09T00:30:53;99813.97;;;21.07;100.00
24390;BME280;12510;56.468;-3.004;2022-09-09T00:33:23;99814.53;;;20.79;100.00
24390;BME280;12510;56.468;-3.004;2022-09-09T00:35:57;99809.38;;;20.77;100.00
24390;BME280;12510;56.468;-3.004;2022-09-09T00:38:34;99812.69;;;20.54;100.00
24390;BME280;12510;56.468;-3.004;2022-09-09T00:44:49;99816.91;;;20.87;100.00
24390;BME280;12510;56.468;-3.004;2022-09-09T00:52:27;99828.03;;;20.22;100.00
24390;BME280;12510;56.468;-3.004;2022-09-09T00:57:38;99829.28;;;20.63;100.00
24390;BME280;12510;56.468;-3.004;2022-09-09T01:00:20;99820.47;;;20.81;100.00
24390;BME280;12510;56.468;-3.004;2022-09-09T01:12:17;99824.78;;;20.38;100.00
24390;BME280;12510;56.468;-3.004;2022-09-09T01:15:22;99832.81;;;20.38;100.00
24390;BME280;12510;56.468;-3.004;2022-09-09T01:20:23;99830.44;;;20.30;100.00
24390;BME280;12510;56.468;-3.004;2022-09-09T01:26:41;99838.78;;;20.40;100.00
24390;BME280;12510;56.468;-3.004;2022-09-09T01:29:17;99843.03;;;20.48;100.00
24390;BME280;12510;56.468;-3.004;2022-09-09T01:34:27;99847.78;;;20.21;100.00
24390;BME280;12510;56.468;-3.004;2022-09-09T01:39:28;99851.75;;;20.12;100.00
24390;BME280;12510;56.468;-3.004;2022-09-09T01:42:01;99845.78;;;20.16;100.00
24390;BME280;12510;56.468;-3.004;2022-09-09T01:44:29;99852.03;;;20.03;100.00
24390;BME280;12510;56.468;-3.004;2022-09-09T01:46:56;99836.28;;;19.95;100.00
24390;BME280;12510;56.468;-3.004;2022-09-09T01:49:23;99849.53;;;19.76;100.00
24390;BME280;12510;56.468;-3.004;2022-09-09T01:51:52;99854.28;;;19.74;100.00
24390;BME280;12510;56.468;-3.004;2022-09-09T01:54:28;99849.19;;;19.66;100.00
24390;BME280;12510;56.468;-3.004;2022-09-09T01:57:18;99850.41;;;20.02;100.00
24390;BME280;12510;56.468;-3.004;2022-09-09T02:02:26;99860.97;;;19.90;100.00
24390;BME280;12510;56.468;-3.004;2022-09-09T02:07:55;99850.44;;;19.96;100.00
24390;BME280;12510;56.468;-3.004;2022-09-09T02:10:47;99854.25;;;20.06;100.00
24390;BME280;12510;56.468;-3.004;2022-09-09T02:13:29;99854.22;;;20.57;100.00
24390;BME280;12510;56.468;-3.004;2022-09-09T02:15:59;99850.19;;;20.73;100.00
24390;BME280;12510;56.468;-3.004;2022-09-09T02:18:34;99849.38;;;20.29;100.00
24390;BME280;12510;56.468;-3.004;2022-09-09T02:21:02;99855.03;;;19.88;100.00
24390;BME280;12510;56.468;-3.004;2022-09-09T02:23:30;99855.09;;;19.75;100.00
24390;BME280;12510;56.468;-3.004;2022-09-09T02:25:59;99873.03;;;19.68;100.00
24390;BME280;12510;56.468;-3.004;2022-09-09T02:28:29;99878.56;;;19.66;100.00
24390;BME280;12510;56.468;-3.004;2022-09-09T02:30:56;99866.88;;;20.50;100.00
24390;BME280;12510;56.468;-3.004;2022-09-09T02:33:35;99865.13;;;19.80;100.00
24390;BME280;12510;56.468;-3.004;2022-09-09T02:36:03;99870.19;;;19.63;100.00
24390;BME280;12510;56.468;-3.004;2022-09-09T02:38:37;99868.34;;;20.20;100.00
24390;BME280;12510;56.468;-3.004;2022-09-09T02:41:10;99870.47;;;19.48;100.00
24390;BME280;12510;56.468;-3.004;2022-09-09T02:43:37;99879.75;;;19.70;100.00
24390;BME280;12510;56.468;-3.004;2022-09-09T02:51:46;99887.41;;;20.49;100.00
24390;BME280;12510;56.468;-3.004;2022-09-09T02:54:28;99868.94;;;20.48;100.00
24390;BME280;12510;56.468;-3.004;2022-09-09T02:59:35;99881.50;;;20.22;100.00
24390;BME280;12510;56.468;-3.004;2022-09-09T03:02:02;99878.50;;;20.37;100.00
24390;BME280;12510;56.468;-3.004;2022-09-09T03:04:29;99874.84;;;20.31;100.00
24390;BME280;12510;56.468;-3.004;2022-09-09T03:06:58;99878.41;;;19.61;100.00
24390;BME280;12510;56.468;-3.004;2022-09-09T03:09:25;99880.09;;;19.87;100.00
24390;BME280;12510;56.468;-3.004;2022-09-09T03:11:56;99881.22;;;19.66;100.00
24390;BME280;12510;56.468;-3.004;2022-09-09T03:14:23;99879.31;;;19.80;100.00
24390;BME280;12510;56.468;-3.004;2022-09-09T03:16:52;99878.69;;;19.78;100.00
24390;BME280;12510;56.468;-3.004;2022-09-09T03:19:20;99884.03;;;19.78;100.00
24390;BME280;12510;56.468;-3.004;2022-09-09T03:21:47;99885.09;;;19.70;100.00
24390;BME280;12510;56.468;-3.004;2022-09-09T03:24:14;99878.69;;;19.78;100.00
24390;BME280;12510;56.468;-3.004;2022-09-09T03:26:41;99883.94;;;19.98;100.00
24390;BME280;12510;56.468;-3.004;2022-09-09T03:29:13;99885.69;;;19.40;100.00
24390;BME280;12510;56.468;-3.004;2022-09-09T03:31:41;99880.03;;;19.62;100.00
24390;BME280;12510;56.468;-3.004;2022-09-09T03:34:09;99886.50;;;20.12;100.00
24390;BME280;12510;56.468;-3.004;2022-09-09T03:36:36;99891.50;;;19.31;100.00
24390;BME280;12510;56.468;-3.004;2022-09-09T03:39:04;99897.53;;;19.51;100.00
24390;BME280;12510;56.468;-3.004;2022-09-09T03:41:31;99896.41;;;19.34;100.00
24390;BME280;12510;56.468;-3.004;2022-09-09T03:43:59;99895.16;;;19.36;100.00
24390;BME280;12510;56.468;-3.004;2022-09-09T03:46:30;99895.50;;;19.53;100.00
24390;BME280;12510;56.468;-3.004;2022-09-09T03:48:58;99891.81;;;19.48;100.00
24390;BME280;12510;56.468;-3.004;2022-09-09T03:51:25;99893.09;;;19.38;100.00
24390;BME280;12510;56.468;-3.004;2022-09-09T03:53:51;99890.22;;;19.79;100.00
24390;BME280;12510;56.468;-3.004;2022-09-09T03:56:20;99896.72;;;19.51;100.00
24390;BME280;12510;56.468;-3.004;2022-09-09T03:58:48;99898.63;;;19.37;100.00
24390;BME280;12510;56.468;-3.004;2022-09-09T04:01:15;99896.00;;;19.69;100.00
24390;BME280;12510;56.468;-3.004;2022-09-09T04:03:44;99903.72;;;19.52;100.00
24390;BME280;12510;56.468;-3.004;2022-09-09T04:06:12;99907.78;;;19.61;100.00
24390;BME280;12510;56.468;-3.004;2022-09-09T04:08:41;99921.91;;;19.16;100.00
24390;BME280;12510;56.468;-3.004;2022-09-09T04:11:08;99907.41;;;19.51;100.00
24390;BME280;12510;56.468;-3.004;2022-09-09T04:13:38;99918.75;;;19.39;100.00
24390;BME280;12510;56.468;-3.004;2022-09-09T04:16:13;99921.44;;;19.33;100.00
24390;BME280;12510;56.468;-3.004;2022-09-09T04:18:42;99915.47;;;19.37;100.00
24390;BME280;12510;56.468;-3.004;2022-09-09T04:21:10;99925.56;;;19.29;100.00
24390;BME280;12510;56.468;-3.004;2022-09-09T04:23:38;99914.03;;;19.41;100.00
24390;BME280;12510;56.468;-3.004;2022-09-09T04:26:06;99924.78;;;19.21;100.00
24390;BME280;12510;56.468;-3.004;2022-09-09T04:28:35;99930.53;;;19.25;100.00
24390;BME280;12510;56.468;-3.004;2022-09-09T04:31:11;99929.44;;;19.39;100.00
24390;BME280;12510;56.468;-3.004;2022-09-09T04:33:40;99934.00;;;19.25;100.00
24390;BME280;12510;56.468;-3.004;2022-09-09T04:36:08;99923.75;;;19.29;100.00
24390;BME280;12510;56.468;-3.004;2022-09-09T04:38:35;99933.00;;;19.20;100.00
24390;BME280;12510;56.468;-3.004;2022-09-09T04:41:03;99927.25;;;19.23;100.00
24390;BME280;12510;56.468;-3.004;2022-09-09T04:43:29;99937.38;;;18.94;100.00
24390;BME280;12510;56.468;-3.004;2022-09-09T04:45:57;99936.25;;;19.29;100.00
24390;BME280;12510;56.468;-3.004;2022-09-09T04:48:25;99936.28;;;19.22;100.00
24390;BME280;12510;56.468;-3.004;2022-09-09T04:51:00;99937.53;;;19.13;100.00
24390;BME280;12510;56.468;-3.004;2022-09-09T04:53:29;99939.16;;;19.14;100.00
24390;BME280;12510;56.468;-3.004;2022-09-09T04:56:09;99935.19;;;19.36;100.00
24390;BME280;12510;56.468;-3.004;2022-09-09T04:58:41;99932.97;;;19.33;100.00
24390;BME280;12510;56.468;-3.004;2022-09-09T05:01:15;99938.94;;;19.22;100.00
24390;BME280;12510;56.468;-3.004;2022-09-09T05:03:45;99931.31;;;19.32;100.00
24390;BME280;12510;56.468;-3.004;2022-09-09T05:06:18;99941.66;;;19.08;100.00
24390;BME280;12510;56.468;-3.004;2022-09-09T05:08:47;99940.94;;;19.40;100.00
24390;BME280;12510;56.468;-3.004;2022-09-09T05:11:22;99948.53;;;19.36;100.00
24390;BME280;12510;56.468;-3.004;2022-09-09T05:13:55;99947.41;;;19.05;100.00
24390;BME280;12510;56.468;-3.004;2022-09-09T05:16:23;99949.56;;;19.35;100.00
24390;BME280;12510;56.468;-3.004;2022-09-09T05:18:50;99950.16;;;19.44;100.00
24390;BME280;12510;56.468;-3.004;2022-09-09T05:21:19;99958.72;;;19.59;100.00
24390;BME280;12510;56.468;-3.004;2022-09-09T05:23:46;99959.63;;;19.40;100.00
24390;BME280;12510;56.468;-3.004;2022-09-09T05:26:15;99960.00;;;19.43;100.00
24390;BME280;12510;56.468;-3.004;2022-09-09T05:28:42;99960.63;;;19.46;100.00
24390;BME280;12510;56.468;-3.004;2022-09-09T05:31:10;99964.81;;;19.28;100.00
24390;BME280;12510;56.468;-3.004;2022-09-09T05:33:41;99965.81;;;19.34;100.00
24390;BME280;12510;56.468;-3.004;2022-09-09T05:36:11;99966.63;;;19.34;100.00
24390;BME280;12510;56.468;-3.004;2022-09-09T05:38:40;99975.66;;;19.40;100.00
24390;BME280;12510;56.468;-3.004;2022-09-09T05:41:08;99975.66;;;19.40;100.00
24390;BME280;12510;56.468;-3.004;2022-09-09T05:43:37;99971.78;;;19.29;100.00
24390;BME280;12510;56.468;-3.004;2022-09-09T05:46:10;99962.91;;;19.35;100.00
24390;BME280;12510;56.468;-3.004;2022-09-09T05:48:39;99975.47;;;19.35;100.00
24390;BME280;12510;56.468;-3.004;2022-09-09T05:51:09;99979.31;;;19.46;100.00
24390;BME280;12510;56.468;-3.004;2022-09-09T05:53:38;99982.19;;;19.51;100.00
24390;BME280;12510;56.468;-3.004;2022-09-09T05:56:08;99984.69;;;19.32;100.00
24390;BME280;12510;56.468;-3.004;2022-09-09T05:58:37;99993.13;;;19.29;100.00
24390;BME280;12510;56.468;-3.004;2022-09-09T06:01:18;99996.47;;;18.91;100.00
24390;BME280;12510;56.468;-3.004;2022-09-09T06:03:47;100000.78;;;18.92;100.00
24390;BME280;12510;56.468;-3.004;2022-09-09T06:06:16;100005.09;;;18.80;100.00
24390;BME280;12510;56.468;-3.004;2022-09-09T06:08:44;100000.75;;;18.85;100.00
24390;BME280;12510;56.468;-3.004;2022-09-09T06:11:15;100004.09;;;18.94;100.00
24390;BME280;12510;56.468;-3.004;2022-09-09T06:13:43;100005.31;;;19.05;100.00
24390;BME280;12510;56.468;-3.004;2022-09-09T06:16:15;100006.94;;;18.99;100.00
24390;BME280;12510;56.468;-3.004;2022-09-09T06:18:43;100011.22;;;19.20;100.00
24390;BME280;12510;56.468;-3.004;2022-09-09T06:23:42;100017.31;;;19.48;100.00
24390;BME280;12510;56.468;-3.004;2022-09-09T06:26:16;100002.53;;;19.45;100.00
24390;BME280;12510;56.468;-3.004;2022-09-09T06:28:46;100017.56;;;19.26;100.00
24390;BME280;12510;56.468;-3.004;2022-09-09T06:31:16;100026.63;;;19.25;100.00
24390;BME280;12510;56.468;-3.004;2022-09-09T06:33:51;100023.47;;;19.55;100.00
24390;BME280;12510;56.468;-3.004;2022-09-09T06:36:25;100031.72;;;19.33;100.00
24390;BME280;12510;56.468;-3.004;2022-09-09T06:38:52;100038.09;;;19.32;100.00
24390;BME280;12510;56.468;-3.004;2022-09-09T06:41:21;100040.56;;;19.27;100.00
24390;BME280;12510;56.468;-3.004;2022-09-09T06:43:48;100042.44;;;19.20;100.00
24390;BME280;12510;56.468;-3.004;2022-09-09T06:46:18;100039.97;;;19.25;100.00
24390;BME280;12510;56.468;-3.004;2022-09-09T06:48:46;100054.09;;;19.39;100.00
24390;BME280;12510;56.468;-3.004;2022-09-09T06:51:20;100055.56;;;19.28;100.00
24390;BME280;12510;56.468;-3.004;2022-09-09T06:53:51;100060.84;;;19.55;100.00
24390;BME280;12510;56.468;-3.004;2022-09-09T06:58:57;100056.94;;;19.57;100.00
24390;BME280;12510;56.468;-3.004;2022-09-09T07:01:32;100064.13;;;19.43;100.00
24390;BME280;12510;56.468;-3.004;2022-09-09T07:04:03;100059.22;;;19.47;100.00
24390;BME280;12510;56.468;-3.004;2022-09-09T07:06:35;100065.00;;;19.37;100.00
24390;BME280;12510;56.468;-3.004;2022-09-09T07:09:05;100062.09;;;19.46;100.00
24390;BME280;12510;56.468;-3.004;2022-09-09T07:11:34;100066.56;;;19.65;100.00
24390;BME280;12510;56.468;-3.004;2022-09-09T07:14:01;100064.97;;;19.51;100.00
24390;BME280;12510;56.468;-3.004;2022-09-09T07:16:28;100065.59;;;19.39;100.00
24390;BME280;12510;56.468;-3.004;2022-09-09T07:18:59;100071.72;;;19.60;100.00
24390;BME280;12510;56.468;-3.004;2022-09-09T07:21:29;100075.63;;;19.64;100.00
24390;BME280;12510;56.468;-3.004;2022-09-09T07:23:56;100073.50;;;19.80;100.00
24390;BME280;12510;56.468;-3.004;2022-09-09T07:26:25;100082.97;;;19.82;100.00
24390;BME280;12510;56.468;-3.004;2022-09-09T07:28:54;100072.28;;;19.82;100.00
24390;BME280;12510;56.468;-3.004;2022-09-09T07:31:26;100076.59;;;19.83;100.00
24390;BME280;12510;56.468;-3.004;2022-09-09T07:33:54;100086.25;;;19.91;100.00
24390;BME280;12510;56.468;-3.004;2022-09-09T07:36:26;100086.75;;;20.13;100.00
24390;BME280;12510;56.468;-3.004;2022-09-09T07:38:57;100092.50;;;20.17;100.00
24390;BME280;12510;56.468;-3.004;2022-09-09T07:41:26;100094.00;;;20.06;100.00
24390;BME280;12510;56.468;-3.004;2022-09-09T07:43:54;100110.25;;;20.04;100.00
24390;BME280;12510;56.468;-3.004;2022-09-09T07:46:23;100112.00;;;20.24;100.00
24390;BME280;12510;56.468;-3.004;2022-09-09T07:48:52;100108.16;;;20.06;100.00
24390;BME280;12510;56.468;-3.004;2022-09-09T07:51:28;100127.97;;;19.92;100.00
24390;BME280;12510;56.468;-3.004;2022-09-09T07:54:00;100123.88;;;19.83;100.00
24390;BME280;12510;56.468;-3.004;2022-09-09T07:56:30;100164.38;;;19.39;100.00
24390;BME280;12510;56.468;-3.004;2022-09-09T07:58:58;100142.63;;;19.29;100.00
24390;BME280;12510;56.468;-3.004;2022-09-09T08:04:01;100162.25;;;18.88;100.00
24390;BME280;12510;56.468;-3.004;2022-09-09T08:06:31;100160.09;;;19.12;100.00
24390;BME280;12510;56.468;-3.004;2022-09-09T08:08:59;100207.09;;;19.93;100.00
24390;BME280;12510;56.468;-3.004;2022-09-09T08:11:27;100172.31;;;20.06;100.00
24390;BME280;12510;56.468;-3.004;2022-09-09T08:13:55;100163.31;;;19.74;100.00
24390;BME280;12510;56.468;-3.004;2022-09-09T08:16:24;100162.28;;;19.75;100.00
24390;BME280;12510;56.468;-3.004;2022-09-09T08:18:52;100165.34;;;20.05;100.00
24390;BME280;12510;56.468;-3.004;2022-09-09T08:21:26;100163.28;;;20.53;100.00
24390;BME280;12510;56.468;-3.004;2022-09-09T08:23:56;100163.22;;;20.73;100.00
24390;BME280;12510;56.468;-3.004;2022-09-09T08:26:26;100170.44;;;20.72;100.00
24390;BME280;12510;56.468;-3.004;2022-09-09T08:28:56;100180.91;;;20.74;100.00
24390;BME280;12510;56.468;-3.004;2022-09-09T08:31:50;100188.66;;;21.46;100.00
24390;BME280;12510;56.468;-3.004;2022-09-09T08:34:18;100180.19;;;20.92;100.00
24390;BME280;12510;56.468;-3.004;2022-09-09T08:36:48;100191.91;;;20.52;100.00
24390;BME280;12510;56.468;-3.004;2022-09-09T08:39:17;100189.06;;;20.40;100.00
24390;BME280;12510;56.468;-3.004;2022-09-09T08:44:38;100196.72;;;20.82;100.00
24390;BME280;12510;56.468;-3.004;2022-09-09T08:53:09;100210.13;;;22.64;100.00
24390;BME280;12510;56.468;-3.004;2022-09-09T08:55:52;100211.47;;;23.58;100.00
24390;BME280;12510;56.468;-3.004;2022-09-09T08:58:28;100211.31;;;24.24;100.00
24390;BME280;12510;56.468;-3.004;2022-09-09T09:11:59;100230.22;;;22.43;100.00
24390;BME280;12510;56.468;-3.004;2022-09-09T09:14:35;100246.38;;;21.92;100.00
24390;BME280;12510;56.468;-3.004;2022-09-09T09:17:21;100241.88;;;21.68;100.00
24390;BME280;12510;56.468;-3.004;2022-09-09T09:19:50;100255.66;;;21.39;100.00
24390;BME280;12510;56.468;-3.004;2022-09-09T09:22:50;100245.81;;;21.33;100.00
24390;BME280;12510;56.468;-3.004;2022-09-09T09:28:00;100266.66;;;22.51;100.00
24390;BME280;12510;56.468;-3.004;2022-09-09T09:30:34;100259.78;;;22.55;100.00
24390;BME280;12510;56.468;-3.004;2022-09-09T09:33:20;100264.84;;;23.12;100.00
24390;BME280;12510;56.468;-3.004;2022-09-09T09:35:50;100257.06;;;22.92;100.00
24390;BME280;12510;56.468;-3.004;2022-09-09T09:38:21;100272.84;;;23.00;100.00
24390;BME280;12510;56.468;-3.004;2022-09-09T09:40:57;100266.53;;;23.25;100.00
24390;BME280;12510;56.468;-3.004;2022-09-09T09:43:32;100264.56;;;24.10;100.00
24390;BME280;12510;56.468;-3.004;2022-09-09T09:46:22;100275.97;;;23.70;100.00
24390;BME280;12510;56.468;-3.004;2022-09-09T09:49:08;100285.34;;;23.79;100.00
24390;BME280;12510;56.468;-3.004;2022-09-09T09:51:37;100284.59;;;23.60;100.00
24390;BME280;12510;56.468;-3.004;2022-09-09T09:54:13;100275.78;;;23.10;100.00
24390;BME280;12510;56.468;-3.004;2022-09-09T09:56:49;100303.78;;;23.75;100.00
24390;BME280;12510;56.468;-3.004;2022-09-09T10:02:16;100302.66;;;23.10;100.00
24390;BME280;12510;56.468;-3.004;2022-09-09T10:04:44;100302.00;;;22.97;100.00
24390;BME280;12510;56.468;-3.004;2022-09-09T10:07:20;100301.28;;;22.89;100.00
24390;BME280;12510;56.468;-3.004;2022-09-09T10:09:53;100297.25;;;23.29;100.00
24390;BME280;12510;56.468;-3.004;2022-09-09T10:13:04;100314.31;;;23.35;100.00
24390;BME280;12510;56.468;-3.004;2022-09-09T10:32:00;100323.16;;;22.56;100.00
24390;BME280;12510;56.468;-3.004;2022-09-09T10:40:26;100318.00;;;22.73;100.00
24390;BME280;12510;56.468;-3.004;2022-09-09T10:43:03;100328.38;;;22.69;100.00
24390;BME280;12510;56.468;-3.004;2022-09-09T10:45:53;100328.94;;;23.08;100.00
24390;BME280;12510;56.468;-3.004;2022-09-09T10:51:28;100324.09;;;22.99;100.00
24390;BME280;12510;56.468;-3.004;2022-09-09T10:54:10;100337.88;;;23.21;100.00
24390;BME280;12510;56.468;-3.004;2022-09-09T10:56:42;100335.09;;;23.27;100.00
24390;BME280;12510;56.468;-3.004;2022-09-09T10:59:17;100322.88;;;23.43;100.00
24390;BME280;12510;56.468;-3.004;2022-09-09T11:01:54;100335.56;;;23.24;100.00
24390;BME280;12510;56.468;-3.004;2022-09-09T11:04:28;100338.78;;;23.87;100.00
24390;BME280;12510;56.468;-3.004;2022-09-09T11:07:02;100341.09;;;23.41;100.00
24390;BME280;12510;56.468;-3.004;2022-09-09T11:09:37;100338.81;;;23.26;100.00
24390;BME280;12510;56.468;-3.004;2022-09-09T11:12:05;100353.09;;;23.27;100.00
24390;BME280;12510;56.468;-3.004;2022-09-09T11:14:57;100340.97;;;23.36;100.00
24390;BME280;12510;56.468;-3.004;2022-09-09T11:17:56;100344.28;;;23.20;100.00
24390;BME280;12510;56.468;-3.004;2022-09-09T11:20:25;100347.81;;;23.93;100.00
24390;BME280;12510;56.468;-3.004;2022-09-09T11:23:03;100341.75;;;23.55;100.00
24390;BME280;12510;56.468;-3.004;2022-09-09T11:25:38;100342.69;;;24.03;100.00
24390;BME280;12510;56.468;-3.004;2022-09-09T11:30:44;100344.00;;;23.70;100.00
24390;BME280;12510;56.468;-3.004;2022-09-09T11:33:25;100365.00;;;24.16;100.00
24390;BME280;12510;56.468;-3.004;2022-09-09T11:37:01;100355.31;;;23.60;100.00
24390;BME280;12510;56.468;-3.004;2022-09-09T11:41:37;100372.38;;;23.66;100.00
24390;BME280;12510;56.468;-3.004;2022-09-09T11:44:12;100362.19;;;23.68;100.00
24390;BME280;12510;56.468;-3.004;2022-09-09T11:46:40;100363.44;;;23.42;100.00
24390;BME280;12510;56.468;-3.004;2022-09-09T11:49:28;100368.16;;;23.89;100.00
24390;BME280;12510;56.468;-3.004;2022-09-09T11:51:57;100383.63;;;23.14;100.00
24390;BME280;12510;56.468;-3.004;2022-09-09T11:54:32;100370.72;;;23.04;100.00
24390;BME280;12510;56.468;-3.004;2022-09-09T11:56:59;100366.63;;;23.20;100.00
24390;BME280;12510;56.468;-3.004;2022-09-09T11:59:30;100373.41;;;23.23;100.00
24390;BME280;12510;56.468;-3.004;2022-09-09T12:01:59;100393.16;;;22.73;100.00
24390;BME280;12510;56.468;-3.004;2022-09-09T12:04:32;100388.38;;;22.75;100.00
24390;BME280;12510;56.468;-3.004;2022-09-09T12:09:48;100395.97;;;22.59;100.00
24390;BME280;12510;56.468;-3.004;2022-09-09T12:12:35;100383.06;;;23.24;100.00
24390;BME280;12510;56.468;-3.004;2022-09-09T12:17:31;100381.31;;;22.81;100.00
24390;BME280;12510;56.468;-3.004;2022-09-09T12:25:23;100381.22;;;22.87;100.00
24390;BME280;12510;56.468;-3.004;2022-09-09T12:28:01;100396.75;;;22.85;100.00
24390;BME280;12510;56.468;-3.004;2022-09-09T12:30:41;100398.22;;;22.81;100.00
24390;BME280;12510;56.468;-3.004;2022-09-09T12:33:17;100384.78;;;23.00;100.00
24390;BME280;12510;56.468;-3.004;2022-09-09T12:35:46;100400.97;;;22.93;100.00
24390;BME280;12510;56.468;-3.004;2022-09-09T12:38:44;100391.66;;;22.96;100.00
24390;BME280;12510;56.468;-3.004;2022-09-09T12:41:28;100386.66;;;22.81;100.00
24390;BME280;12510;56.468;-3.004;2022-09-09T12:44:06;100394.84;;;22.49;100.00
24390;BME280;12510;56.468;-3.004;2022-09-09T12:46:42;100412.78;;;22.23;100.00
24390;BME280;12510;56.468;-3.004;2022-09-09T12:49:37;100399.47;;;22.97;100.00
24390;BME280;12510;56.468;-3.004;2022-09-09T12:52:32;100411.94;;;21.97;100.00
24390;BME280;12510;56.468;-3.004;2022-09-09T12:55:02;100405.66;;;21.85;100.00
24390;BME280;12510;56.468;-3.004;2022-09-09T12:57:34;100420.34;;;22.58;100.00
24390;BME280;12510;56.468;-3.004;2022-09-09T13:00:17;100410.03;;;22.99;100.00
24390;BME280;12510;56.468;-3.004;2022-09-09T13:02:47;100413.31;;;22.38;100.00
24390;BME280;12510;56.468;-3.004;2022-09-09T13:05:38;100424.53;;;22.22;100.00
24390;BME280;12510;56.468;-3.004;2022-09-09T13:08:07;100417.31;;;22.91;100.00
24390;BME280;12510;56.468;-3.004;2022-09-09T13:11:03;100424.50;;;22.98;100.00
24390;BME280;12510;56.468;-3.004;2022-09-09T13:13:35;100414.53;;;23.54;100.00
24390;BME280;12510;56.468;-3.004;2022-09-09T13:16:04;100423.31;;;23.12;100.00
24390;BME280;12510;56.468;-3.004;2022-09-09T13:18:39;100423.81;;;23.02;100.00
24390;BME280;12510;56.468;-3.004;2022-09-09T13:21:06;100438.94;;;22.78;100.00
24390;BME280;12510;56.468;-3.004;2022-09-09T13:23:35;100439.84;;;22.72;100.00
24390;BME280;12510;56.468;-3.004;2022-09-09T13:26:21;100437.72;;;22.23;100.00
24390;BME280;12510;56.468;-3.004;2022-09-09T13:28:48;100438.16;;;22.52;100.00
24390;BME280;12510;56.468;-3.004;2022-09-09T13:31:30;100436.28;;;22.53;100.00
24390;BME280;12510;56.468;-3.004;2022-09-09T13:33:58;100433.78;;;23.20;100.00
24390;BME280;12510;56.468;-3.004;2022-09-09T13:36:31;100426.91;;;23.55;100.00
24390;BME280;12510;56.468;-3.004;2022-09-09T13:38:59;100436.94;;;22.73;100.00
24390;BME280;12510;56.468;-3.004;2022-09-09T13:41:42;100436.78;;;22.43;100.00
24390;BME280;12510;56.468;-3.004;2022-09-09T13:44:27;100433.88;;;22.88;100.00
24390;BME280;12510;56.468;-3.004;2022-09-09T13:47:06;100413.06;;;23.02;100.00
24390;BME280;12510;56.468;-3.004;2022-09-09T13:49:43;100427.34;;;23.03;100.00
24390;BME280;12510;56.468;-3.004;2022-09-09T13:52:14;100430.97;;;23.08;100.00
24390;BME280;12510;56.468;-3.004;2022-09-09T13:54:41;100438.16;;;22.96;100.00
24390;BME280;12510;56.468;-3.004;2022-09-09T13:57:17;100435.38;;;23.03;100.00
24390;BME280;12510;56.468;-3.004;2022-09-09T13:59:47;100435.44;;;22.77;100.00
24390;BME280;12510;56.468;-3.004;2022-09-09T14:02:15;100435.47;;;22.96;100.00
24390;BME280;12510;56.468;-3.004;2022-09-09T14:04:43;100446.47;;;22.88;100.00
24390;BME280;12510;56.468;-3.004;2022-09-09T14:07:13;100445.69;;;23.43;100.00
24390;BME280;12510;56.468;-3.004;2022-09-09T14:09:41;100437.22;;;23.58;100.00
24390;BME280;12510;56.468;-3.004;2022-09-09T14:12:10;100447.13;;;23.57;100.00
24390;BME280;12510;56.468;-3.004;2022-09-09T14:14:38;100448.53;;;23.30;100.00
24390;BME280;12510;56.468;-3.004;2022-09-09T14:17:04;100464.25;;;23.07;100.00
24390;BME280;12510;56.468;-3.004;2022-09-09T14:19:31;100454.31;;;23.45;100.00
24390;BME280;12510;56.468;-3.004;2022-09-09T14:21:57;100454.38;;;23.57;100.00
24390;BME280;12510;56.468;-3.004;2022-09-09T14:24:24;100469.50;;;23.39;100.00
24390;BME280;12510;56.468;-3.004;2022-09-09T14:26:51;100454.09;;;23.96;100.00
24390;BME280;12510;56.468;-3.004;2022-09-09T14:29:17;100452.03;;;24.21;100.00
24390;BME280;12510;56.468;-3.004;2022-09-09T14:31:44;100461.44;;;24.42;100.00
24390;BME280;12510;56.468;-3.004;2022-09-09T14:34:10;100450.84;;;23.45;100.00
24390;BME280;12510;56.468;-3.004;2022-09-09T14:36:37;100463.97;;;23.16;100.00
24390;BME280;12510;56.468;-3.004;2022-09-09T14:39:04;100465.63;;;23.17;100.00
24390;BME280;12510;56.468;-3.004;2022-09-09T14:41:31;100456.91;;;22.77;100.00
24390;BME280;12510;56.468;-3.004;2022-09-09T14:43:57;100463.19;;;22.90;100.00
24390;BME280;12510;56.468;-3.004;2022-09-09T14:46:24;100470.63;;;22.88;100.00
24390;BME280;12510;56.468;-3.004;2022-09-09T14:48:52;100464.66;;;22.67;100.00
24390;BME280;12510;56.468;-3.004;2022-09-09T14:51:24;100461.75;;;22.43;100.00
24390;BME280;12510;56.468;-3.004;2022-09-09T14:53:52;100464.44;;;22.43;100.00
24390;BME280;12510;56.468;-3.004;2022-09-09T14:56:21;100466.34;;;22.36;100.00
24390;BME280;12510;56.468;-3.004;2022-09-09T14:58:50;100465.81;;;22.21;100.00
24390;BME280;12510;56.468;-3.004;2022-09-09T15:01:18;100471.13;;;22.02;100.00
24390;BME280;12510;56.468;-3.004;2022-09-09T15:03:51;100475.94;;;22.51;100.00
24390;BME280;12510;56.468;-3.004;2022-09-09T15:06:19;100473.72;;;22.41;100.00
24390;BME280;12510;56.468;-3.004;2022-09-09T15:08:47;100477.50;;;22.01;100.00
24390;BME280;12510;56.468;-3.004;2022-09-09T15:11:14;100481.81;;;21.70;100.00
24390;BME280;12510;56.468;-3.004;2022-09-09T15:13:42;100473.56;;;21.65;100.00